createdAt,value
2024-05-09T00:02:08.046Z,11.98
2024-05-09T00:04:25.328Z,11.88
2024-05-09T00:06:42.643Z,11.91
2024-05-09T00:08:59.677Z,11.94
2024-05-09T00:11:16.862Z,11.93
2024-05-09T00:13:34.208Z,11.88
2024-05-09T00:15:51.367Z,11.77
2024-05-09T00:18:08.870Z,11.75
2024-05-09T00:20:35.044Z,11.85
2024-05-09T00:22:56.067Z,11.86
2024-05-09T00:25:13.192Z,11.83
2024-05-09T00:27:30.266Z,11.80
2024-05-09T00:29:47.403Z,11.76
2024-05-09T00:32:04.702Z,11.66
2024-05-09T00:34:22.425Z,11.66
2024-05-09T00:36:39.623Z,11.72
2024-05-09T00:38:56.723Z,11.70
2024-05-09T00:41:16.365Z,11.55
2024-05-09T00:43:34.174Z,11.51
2024-05-09T00:45:51.296Z,11.53
2024-05-09T00:48:10.017Z,11.52
2024-05-09T00:50:35.589Z,11.49
2024-05-09T00:52:54.384Z,11.55
2024-05-09T00:55:11.517Z,11.50
2024-05-09T00:57:28.586Z,11.39
2024-05-09T00:59:45.683Z,11.45
2024-05-09T01:02:02.889Z,11.40
2024-05-09T01:04:20.049Z,11.53
2024-05-09T01:06:37.184Z,11.53
2024-05-09T01:08:54.287Z,11.41
2024-05-09T01:11:11.530Z,11.46
2024-05-09T01:13:28.636Z,11.46
2024-05-09T01:15:45.757Z,11.41
2024-05-09T01:18:03.172Z,11.35
2024-05-09T01:20:31.515Z,11.39
2024-05-09T01:22:56.875Z,11.39
2024-05-09T01:25:14.050Z,11.31
2024-05-09T01:27:31.083Z,11.31
2024-05-09T01:29:48.275Z,11.29
2024-05-09T01:32:05.500Z,11.22
2024-05-09T01:34:22.757Z,11.16
2024-05-09T01:36:39.877Z,10.99
2024-05-09T01:38:56.941Z,11.10
2024-05-09T01:41:14.063Z,11.07
2024-05-09T01:43:31.257Z,11.08
2024-05-09T01:45:48.295Z,11.08
2024-05-09T01:48:05.597Z,10.93
2024-05-09T01:50:34.155Z,10.95
2024-05-09T01:52:56.558Z,10.96
2024-05-09T01:55:13.785Z,10.98
2024-05-09T01:57:30.975Z,10.92
2024-05-09T01:59:48.081Z,11.01
2024-05-09T02:02:05.394Z,10.94
2024-05-09T02:04:22.717Z,10.85
2024-05-09T02:06:39.941Z,10.92
2024-05-09T02:08:57.019Z,10.94
2024-05-09T02:11:14.337Z,10.98
2024-05-09T02:13:31.479Z,11.03
2024-05-09T02:15:48.584Z,11.05
2024-05-09T02:18:05.985Z,10.96
2024-05-09T02:20:30.582Z,10.91
2024-05-09T02:22:53.264Z,10.89
2024-05-09T02:25:10.405Z,10.93
2024-05-09T02:27:27.582Z,10.75
2024-05-09T02:29:44.774Z,10.93
2024-05-09T02:32:01.952Z,10.82
2024-05-09T02:34:19.299Z,10.72
2024-05-09T02:36:36.476Z,10.76
2024-05-09T02:38:53.657Z,10.81
2024-05-09T02:41:10.835Z,10.60
2024-05-09T02:43:27.989Z,10.74
2024-05-09T02:45:45.171Z,10.50
2024-05-09T02:48:02.765Z,10.48
2024-05-09T02:50:29.599Z,10.45
2024-05-09T02:52:53.894Z,10.48
2024-05-09T02:55:11.105Z,10.39
2024-05-09T02:57:28.210Z,10.37
2024-05-09T02:59:45.260Z,10.44
2024-05-09T03:02:02.878Z,10.47
2024-05-09T03:04:20.037Z,10.53
2024-05-09T03:06:37.220Z,10.40
2024-05-09T03:08:54.283Z,10.56
2024-05-09T03:11:11.526Z,10.32
2024-05-09T03:13:28.750Z,10.38
2024-05-09T03:15:45.862Z,10.41
2024-05-09T03:18:03.356Z,10.52
2024-05-09T03:20:24.226Z,10.64
2024-05-09T03:22:47.904Z,10.61
2024-05-09T03:25:05.003Z,10.46
2024-05-09T03:27:22.027Z,10.52
2024-05-09T03:29:39.152Z,10.51
2024-05-09T03:31:56.292Z,10.34
2024-05-09T03:34:13.511Z,10.45
2024-05-09T03:36:30.566Z,10.56
2024-05-09T03:38:47.613Z,10.45
2024-05-09T03:41:04.689Z,10.35
2024-05-09T03:43:21.918Z,10.35
2024-05-09T03:45:38.986Z,10.39
2024-05-09T03:47:57.086Z,10.48
2024-05-09T03:50:22.032Z,10.40
2024-05-09T03:52:43.566Z,10.48
2024-05-09T03:55:00.967Z,10.56
2024-05-09T03:57:18.012Z,10.50
2024-05-09T03:59:35.174Z,10.59
2024-05-09T04:01:52.544Z,10.38
2024-05-09T04:04:09.758Z,10.37
2024-05-09T04:06:26.871Z,10.40
2024-05-09T04:08:43.920Z,10.32
2024-05-09T04:11:01.264Z,10.43
2024-05-09T04:13:18.369Z,10.52
2024-05-09T04:15:35.421Z,10.39
2024-05-09T04:17:52.740Z,10.40
2024-05-09T04:20:12.509Z,10.45
2024-05-09T04:22:35.515Z,10.52
2024-05-09T04:24:52.629Z,10.57
2024-05-09T04:27:09.689Z,10.56
2024-05-09T04:29:26.890Z,10.48
2024-05-09T04:31:44.162Z,10.56
2024-05-09T04:34:01.482Z,10.54
2024-05-09T04:36:18.647Z,10.54
2024-05-09T04:38:35.812Z,10.50
2024-05-09T04:40:53.041Z,10.48
2024-05-09T04:43:10.180Z,10.58
2024-05-09T04:45:27.332Z,10.53
2024-05-09T04:47:44.560Z,10.59
2024-05-09T04:50:01.790Z,10.59
2024-05-09T04:52:18.906Z,10.62
2024-05-09T04:54:36.765Z,10.65
2024-05-09T04:56:54.002Z,10.63
2024-05-09T04:59:11.143Z,10.62
2024-05-09T05:01:28.395Z,10.66
2024-05-09T05:03:46.262Z,10.64
2024-05-09T05:06:03.632Z,10.62
2024-05-09T05:08:20.731Z,10.67
2024-05-09T05:10:37.881Z,10.64
2024-05-09T05:12:55.013Z,10.70
2024-05-09T05:15:12.050Z,10.70
2024-05-09T05:17:29.290Z,10.67
2024-05-09T05:19:46.628Z,10.72
2024-05-09T05:22:03.739Z,10.70
2024-05-09T05:24:20.814Z,10.72
2024-05-09T05:26:38.178Z,10.69
2024-05-09T05:28:55.328Z,10.81
2024-05-09T05:31:12.475Z,10.88
2024-05-09T05:33:29.690Z,10.91
2024-05-09T05:35:46.812Z,10.89
2024-05-09T05:38:03.973Z,10.85
2024-05-09T05:40:27.946Z,10.86
2024-05-09T05:42:52.320Z,10.91
2024-05-09T05:45:09.936Z,10.91
2024-05-09T05:47:27.221Z,10.92
2024-05-09T05:49:44.409Z,10.94
2024-05-09T05:52:01.515Z,10.95
2024-05-09T05:54:18.588Z,10.88
2024-05-09T05:56:35.781Z,10.92
2024-05-09T05:58:52.884Z,10.97
2024-05-09T06:01:10.050Z,11.06
2024-05-09T06:03:27.156Z,11.11
2024-05-09T06:05:44.801Z,11.14
2024-05-09T06:08:02.079Z,11.23
2024-05-09T06:10:25.392Z,11.27
2024-05-09T06:12:43.704Z,11.26
2024-05-09T06:15:00.755Z,11.27
2024-05-09T06:17:17.872Z,11.30
2024-05-09T06:19:35.013Z,11.32
2024-05-09T06:21:52.090Z,11.32
2024-05-09T06:24:09.179Z,11.35
2024-05-09T06:26:26.268Z,11.36
2024-05-09T06:28:43.318Z,11.40
2024-05-09T06:31:00.821Z,11.50
2024-05-09T06:33:18.214Z,11.58
2024-05-09T06:35:35.653Z,11.66
2024-05-09T06:37:53.625Z,11.73
2024-05-09T06:40:12.524Z,11.85
2024-05-09T06:42:31.678Z,11.91
2024-05-09T06:44:48.768Z,12.00
2024-05-09T06:47:05.929Z,12.14
2024-05-09T06:49:23.234Z,12.19
2024-05-09T06:51:41.493Z,12.30
2024-05-09T06:53:58.580Z,12.28
2024-05-09T06:56:15.910Z,12.38
2024-05-09T06:58:33.018Z,12.54
2024-05-09T07:00:50.133Z,12.69
2024-05-09T07:03:07.415Z,12.80
2024-05-09T07:05:24.726Z,12.91
2024-05-09T07:07:41.871Z,12.99
2024-05-09T07:09:58.998Z,13.12
2024-05-09T07:12:16.160Z,13.24
2024-05-09T07:14:34.761Z,13.39
2024-05-09T07:16:54.266Z,13.43
2024-05-09T07:19:11.619Z,13.53
2024-05-09T07:21:28.857Z,13.65
2024-05-09T07:23:47.324Z,13.96
2024-05-09T07:26:04.692Z,14.03
2024-05-09T07:28:21.882Z,14.25
2024-05-09T07:30:39.016Z,14.48
2024-05-09T07:32:56.213Z,14.63
2024-05-09T07:35:13.389Z,14.82
2024-05-09T07:37:30.506Z,14.87
2024-05-09T07:39:47.649Z,15.01
2024-05-09T07:42:04.738Z,15.26
2024-05-09T07:44:21.866Z,15.43
2024-05-09T07:47:47.349Z,15.60
2024-05-09T07:50:55.902Z,15.51
2024-05-09T07:53:21.525Z,15.80
2024-05-09T07:54:30.656Z,15.91
2024-05-09T07:56:47.989Z,16.13
2024-05-09T07:59:05.146Z,16.13
2024-05-09T08:01:22.426Z,16.24
2024-05-09T08:03:39.909Z,16.26
2024-05-09T08:05:57.139Z,16.35
2024-05-09T08:08:14.186Z,16.60
2024-05-09T08:10:31.318Z,16.91
2024-05-09T08:12:48.427Z,16.94
2024-05-09T08:15:05.530Z,17.10
2024-05-09T08:17:22.740Z,17.16
2024-05-09T08:19:39.942Z,17.30
2024-05-09T08:21:57.143Z,17.38
2024-05-09T08:24:14.220Z,17.59
2024-05-09T08:26:31.313Z,17.57
2024-05-09T08:28:48.350Z,17.87
2024-05-09T08:31:07.052Z,18.12
2024-05-09T08:33:25.075Z,18.11
2024-05-09T08:35:42.153Z,18.20
2024-05-09T08:37:59.375Z,18.42
2024-05-09T08:40:23.936Z,18.45
2024-05-09T08:42:47.940Z,18.62
2024-05-09T08:45:05.031Z,19.04
2024-05-09T08:47:22.261Z,19.06
2024-05-09T08:49:41.403Z,19.20
2024-05-09T08:51:58.764Z,19.02
2024-05-09T08:54:15.998Z,19.04
2024-05-09T08:56:33.080Z,19.17
2024-05-09T08:58:55.424Z,19.35
2024-05-09T09:01:12.574Z,19.49
2024-05-09T09:03:29.926Z,19.59
2024-05-09T09:05:47.354Z,19.65
2024-05-09T09:08:04.524Z,19.76
2024-05-09T09:10:29.700Z,19.66
2024-05-09T09:12:49.243Z,20.02
2024-05-09T09:15:06.345Z,20.21
2024-05-09T09:17:23.678Z,20.20
2024-05-09T09:19:40.881Z,20.34
2024-05-09T09:21:57.985Z,20.30
2024-05-09T09:24:15.078Z,20.04
2024-05-09T09:26:32.195Z,20.14
2024-05-09T09:28:49.690Z,20.40
2024-05-09T09:31:07.241Z,20.67
2024-05-09T09:33:24.503Z,20.56
2024-05-09T09:35:41.664Z,20.75
2024-05-09T09:37:58.704Z,20.55
2024-05-09T09:40:18.337Z,20.76
2024-05-09T09:42:35.626Z,20.81
2024-05-09T09:45:01.960Z,21.04
2024-05-09T09:47:22.330Z,21.17
2024-05-09T09:49:39.501Z,21.16
2024-05-09T09:51:56.767Z,20.95
2024-05-09T09:54:13.988Z,21.24
2024-05-09T09:56:31.014Z,21.34
2024-05-09T09:58:48.350Z,21.36
2024-05-09T10:01:05.521Z,21.55
2024-05-09T10:03:22.934Z,21.63
2024-05-09T10:05:42.112Z,21.68
2024-05-09T10:08:01.687Z,21.66
2024-05-09T10:12:37.521Z,21.92
2024-05-09T10:14:55.109Z,21.61
2024-05-09T10:17:12.164Z,21.49
2024-05-09T10:19:29.407Z,21.28
2024-05-09T10:21:46.760Z,21.39
2024-05-09T10:24:04.077Z,21.28
2024-05-09T10:26:21.120Z,21.06
2024-05-09T10:28:38.186Z,20.77
2024-05-09T10:30:55.235Z,20.73
2024-05-09T10:33:12.440Z,20.98
2024-05-09T10:35:30.054Z,21.16
2024-05-09T10:37:47.126Z,21.22
2024-05-09T10:40:07.231Z,21.37
2024-05-09T10:42:28.910Z,21.54
2024-05-09T10:44:46.013Z,21.81
2024-05-09T10:47:03.095Z,22.00
2024-05-09T10:49:20.262Z,22.12
2024-05-09T10:51:37.426Z,22.42
2024-05-09T10:53:54.525Z,22.35
2024-05-09T10:56:11.627Z,22.58
2024-05-09T10:58:28.713Z,22.95
2024-05-09T11:00:45.832Z,22.72
2024-05-09T11:03:03.190Z,22.90
2024-05-09T11:05:20.516Z,22.99
2024-05-09T11:07:37.615Z,22.92
2024-05-09T11:09:55.045Z,22.68
2024-05-09T11:12:12.230Z,22.97
2024-05-09T11:14:29.802Z,23.03
2024-05-09T11:16:46.995Z,23.08
2024-05-09T11:19:04.452Z,23.02
2024-05-09T11:21:21.647Z,23.32
2024-05-09T11:23:38.768Z,23.23
2024-05-09T11:25:55.903Z,23.36
2024-05-09T11:28:13.172Z,23.47
2024-05-09T11:30:32.292Z,23.49
2024-05-09T11:32:49.895Z,23.53
2024-05-09T11:35:06.987Z,23.49
2024-05-09T11:37:24.321Z,23.44
2024-05-09T11:39:41.409Z,23.40
2024-05-09T11:41:58.503Z,23.60
2024-05-09T11:44:15.584Z,23.56
2024-05-09T11:46:32.633Z,23.89
2024-05-09T11:48:50.432Z,23.83
2024-05-09T11:51:07.610Z,23.78
2024-05-09T11:53:25.101Z,23.75
2024-05-09T11:55:42.141Z,23.97
2024-05-09T11:57:59.304Z,23.96
2024-05-09T12:00:24.550Z,23.91
2024-05-09T12:02:46.776Z,23.74
2024-05-09T12:05:04.565Z,23.83
2024-05-09T12:07:21.938Z,23.71
2024-05-09T12:09:39.119Z,23.91
2024-05-09T12:11:56.840Z,23.93
2024-05-09T12:14:13.983Z,24.07
2024-05-09T12:16:31.383Z,23.90
2024-05-09T12:18:48.919Z,24.01
2024-05-09T12:21:06.054Z,24.26
2024-05-09T12:23:23.096Z,24.36
2024-05-09T12:25:40.399Z,24.43
2024-05-09T12:27:57.773Z,24.40
2024-05-09T12:30:20.918Z,24.54
2024-05-09T12:32:46.116Z,24.39
2024-05-09T12:35:03.387Z,24.55
2024-05-09T12:37:20.551Z,24.84
2024-05-09T12:39:37.813Z,24.99
2024-05-09T12:41:54.961Z,24.69
2024-05-09T12:44:12.082Z,24.84
2024-05-09T12:46:29.222Z,24.88
2024-05-09T12:48:46.556Z,24.96
2024-05-09T12:51:03.782Z,24.93
2024-05-09T12:53:20.925Z,24.84
2024-05-09T12:55:44.790Z,24.88
2024-05-09T12:58:10.235Z,24.94
2024-05-09T13:00:31.694Z,25.10
2024-05-09T13:02:51.255Z,24.92
2024-05-09T13:05:08.476Z,24.82
2024-05-09T13:07:25.689Z,24.83
2024-05-09T13:09:42.916Z,25.36
2024-05-09T13:12:00.127Z,25.30
2024-05-09T13:14:17.234Z,25.26
2024-05-09T13:16:34.504Z,25.26
2024-05-09T13:18:51.714Z,25.35
2024-05-09T13:21:08.832Z,25.59
2024-05-09T13:23:25.885Z,25.53
2024-05-09T13:25:43.441Z,25.45
2024-05-09T13:28:00.937Z,25.42
2024-05-09T13:30:26.363Z,25.31
2024-05-09T13:32:51.667Z,25.05
2024-05-09T13:35:08.802Z,24.59
2024-05-09T13:37:26.476Z,24.38
2024-05-09T13:39:43.590Z,24.42
2024-05-09T13:42:01.211Z,24.51
2024-05-09T13:44:18.314Z,24.85
2024-05-09T13:46:35.386Z,24.94
2024-05-09T13:48:53.142Z,25.12
2024-05-09T13:51:10.341Z,25.21
2024-05-09T13:53:27.437Z,25.43
2024-05-09T13:55:44.516Z,25.32
2024-05-09T13:58:01.909Z,24.79
2024-05-09T14:00:31.717Z,24.25
2024-05-09T14:02:56.104Z,23.95
2024-05-09T14:05:13.599Z,23.70
2024-05-09T14:07:30.831Z,23.30
2024-05-09T14:09:47.966Z,23.03
2024-05-09T14:12:05.097Z,23.20
2024-05-09T14:14:22.152Z,23.43
2024-05-09T14:16:39.460Z,23.76
2024-05-09T14:18:56.720Z,24.14
2024-05-09T14:21:14.340Z,24.20
2024-05-09T14:23:31.595Z,24.34
2024-05-09T14:25:51.896Z,24.49
2024-05-09T14:28:09.828Z,24.57
2024-05-09T14:30:34.699Z,24.76
2024-05-09T14:32:54.858Z,24.88
2024-05-09T14:35:12.197Z,24.92
2024-05-09T14:37:29.390Z,24.79
2024-05-09T14:39:46.490Z,24.94
2024-05-09T14:42:03.821Z,25.08
2024-05-09T14:44:20.892Z,24.94
2024-05-09T14:46:37.973Z,24.93
2024-05-09T14:48:55.260Z,24.96
2024-05-09T14:51:12.449Z,25.14
2024-05-09T14:53:29.546Z,25.08
2024-05-09T14:55:46.715Z,24.98
2024-05-09T14:58:04.046Z,24.91
2024-05-09T15:00:26.393Z,24.61
2024-05-09T15:02:50.039Z,24.67
2024-05-09T15:05:07.539Z,24.67
2024-05-09T15:07:24.794Z,24.71
2024-05-09T15:09:41.929Z,24.38
2024-05-09T15:11:59.144Z,24.25
2024-05-09T15:14:16.235Z,24.04
2024-05-09T15:16:33.393Z,23.70
2024-05-09T15:18:50.729Z,23.65
2024-05-09T15:21:08.025Z,23.34
2024-05-09T15:23:25.312Z,23.41
2024-05-09T15:25:42.585Z,23.47
2024-05-09T15:27:59.801Z,23.67
2024-05-09T15:30:20.827Z,23.84
2024-05-09T15:32:41.251Z,23.87
2024-05-09T15:34:58.450Z,23.69
2024-05-09T15:37:15.539Z,23.72
2024-05-09T15:39:32.776Z,23.75
2024-05-09T15:41:49.890Z,23.80
2024-05-09T15:44:06.980Z,23.99
2024-05-09T15:46:24.104Z,23.65
2024-05-09T15:48:43.717Z,23.54
2024-05-09T15:51:01.823Z,23.50
2024-05-09T15:53:19.069Z,23.47
2024-05-09T15:55:36.319Z,23.55
2024-05-09T15:57:53.569Z,23.69
2024-05-09T16:00:21.447Z,23.74
2024-05-09T16:02:42.412Z,23.94
2024-05-09T16:04:59.737Z,23.99
2024-05-09T16:07:17.015Z,23.96
2024-05-09T16:09:34.209Z,24.05
2024-05-09T16:11:51.338Z,24.16
2024-05-09T16:14:08.485Z,24.20
2024-05-09T16:16:25.879Z,24.26
2024-05-09T16:18:43.234Z,24.34
2024-05-09T16:21:00.404Z,24.22
2024-05-09T16:23:17.567Z,24.22
2024-05-09T16:25:35.519Z,24.08
2024-05-09T16:27:52.685Z,23.87
2024-05-09T16:30:14.868Z,23.74
2024-05-09T16:32:37.980Z,23.42
2024-05-09T16:34:55.397Z,23.12
2024-05-09T16:37:12.679Z,22.83
2024-05-09T16:39:29.888Z,22.50
2024-05-09T16:41:47.066Z,22.20
2024-05-09T16:44:04.244Z,21.99
2024-05-09T16:46:21.457Z,21.76
2024-05-09T16:48:38.882Z,21.55
2024-05-09T16:50:55.986Z,21.45
2024-05-09T16:53:13.117Z,21.47
2024-05-09T16:55:30.265Z,21.44
2024-05-09T16:57:47.431Z,21.34
2024-05-09T17:00:09.219Z,21.19
2024-05-09T17:02:28.910Z,21.07
2024-05-09T17:04:46.216Z,21.08
2024-05-09T17:07:03.425Z,21.01
2024-05-09T17:09:20.638Z,20.96
2024-05-09T17:11:38.175Z,20.86
2024-05-09T17:13:55.350Z,20.74
2024-05-09T17:16:12.492Z,20.66
2024-05-09T17:18:29.648Z,20.58
2024-05-09T17:20:46.844Z,20.51
2024-05-09T17:23:04.299Z,20.47
2024-05-09T17:25:21.753Z,20.43
2024-05-09T17:27:38.924Z,20.33
2024-05-09T17:29:56.497Z,20.14
2024-05-09T17:32:13.792Z,19.95
2024-05-09T17:34:31.152Z,19.84
2024-05-09T17:36:48.364Z,19.67
2024-05-09T17:39:05.549Z,19.52
2024-05-09T17:41:22.766Z,19.40
2024-05-09T17:43:39.887Z,19.27
2024-05-09T17:45:57.036Z,19.18
2024-05-09T17:48:14.373Z,19.16
2024-05-09T17:50:35.751Z,19.11
2024-05-09T17:52:54.551Z,19.06
2024-05-09T17:55:11.696Z,18.99
2024-05-09T17:57:28.798Z,18.90
2024-05-09T17:59:45.902Z,18.83
2024-05-09T18:02:03.245Z,18.77
2024-05-09T18:04:20.584Z,18.76
2024-05-09T18:06:37.958Z,18.71
2024-05-09T18:08:55.203Z,18.69
2024-05-09T18:11:12.308Z,18.65
2024-05-09T18:13:29.576Z,18.51
2024-05-09T18:15:46.797Z,18.47
2024-05-09T18:18:04.437Z,18.48
2024-05-09T18:20:32.609Z,18.47
2024-05-09T18:22:57.883Z,18.43
2024-05-09T18:25:15.162Z,18.36
2024-05-09T18:27:32.540Z,18.24
2024-05-09T18:29:49.673Z,18.09
2024-05-09T18:32:06.846Z,17.99
2024-05-09T18:34:24.104Z,17.95
2024-05-09T18:36:41.446Z,17.93
2024-05-09T18:38:58.577Z,17.91
2024-05-09T18:41:15.929Z,17.82
2024-05-09T18:43:38.517Z,17.76
2024-05-09T18:46:01.811Z,17.67
2024-05-09T18:48:19.216Z,17.57
2024-05-09T18:50:39.417Z,17.49
2024-05-09T18:52:58.171Z,17.43
2024-05-09T18:55:15.517Z,17.40
2024-05-09T18:57:32.855Z,17.36
2024-05-09T18:59:49.972Z,17.26
2024-05-09T19:02:07.470Z,17.19
2024-05-09T19:04:25.003Z,17.16
2024-05-09T19:06:42.227Z,17.12
2024-05-09T19:08:59.364Z,17.08
2024-05-09T19:11:16.526Z,17.00
2024-05-09T19:13:34.030Z,16.94
2024-05-09T19:15:51.240Z,16.86
2024-05-09T19:18:08.562Z,16.81
2024-05-09T19:20:31.920Z,16.77
2024-05-09T19:22:52.258Z,16.76
2024-05-09T19:25:09.413Z,16.72
2024-05-09T19:27:26.655Z,16.59
2024-05-09T19:29:43.745Z,16.55
2024-05-09T19:32:00.901Z,16.52
2024-05-09T19:34:18.164Z,16.48
2024-05-09T19:36:35.476Z,16.46
2024-05-09T19:38:52.584Z,16.34
2024-05-09T19:41:09.810Z,16.27
2024-05-09T19:43:27.096Z,16.21
2024-05-09T19:45:44.295Z,16.19
2024-05-09T19:48:01.674Z,16.16
2024-05-09T19:50:26.690Z,16.09
2024-05-09T19:52:50.983Z,16.00
2024-05-09T19:55:08.252Z,15.94
2024-05-09T19:57:25.431Z,15.89
2024-05-09T19:59:42.510Z,15.80
2024-05-09T20:01:59.773Z,15.76
2024-05-09T20:04:17.094Z,15.74
2024-05-09T20:06:34.489Z,15.72
2024-05-09T20:08:51.589Z,15.64
2024-05-09T20:11:08.637Z,15.53
2024-05-09T20:13:26.005Z,15.56
2024-05-09T20:15:43.249Z,15.52
2024-05-09T20:18:00.655Z,15.40
2024-05-09T20:20:28.221Z,15.39
2024-05-09T20:22:53.218Z,15.28
2024-05-09T20:25:10.448Z,15.27
2024-05-09T20:27:27.802Z,15.26
2024-05-09T20:29:44.895Z,15.09
2024-05-09T20:32:02.048Z,15.08
2024-05-09T20:34:19.130Z,15.07
2024-05-09T20:36:36.313Z,14.98
2024-05-09T20:38:53.396Z,14.95
2024-05-09T20:41:10.526Z,14.98
2024-05-09T20:43:28.206Z,14.96
2024-05-09T20:45:45.395Z,14.93
2024-05-09T20:48:02.759Z,14.89
2024-05-09T20:50:28.535Z,14.77
2024-05-09T20:52:53.426Z,14.72
2024-05-09T20:55:10.589Z,14.70
2024-05-09T20:57:27.907Z,14.69
2024-05-09T20:59:45.023Z,14.71
2024-05-09T21:02:02.257Z,14.62
2024-05-09T21:04:19.650Z,14.61
2024-05-09T21:06:36.807Z,14.41
2024-05-09T21:08:53.925Z,14.38
2024-05-09T21:11:11.032Z,14.51
2024-05-09T21:13:28.248Z,14.41
2024-05-09T21:15:45.630Z,14.32
2024-05-09T21:18:03.008Z,14.25
2024-05-09T21:20:24.416Z,14.24
2024-05-09T21:22:47.494Z,14.30
2024-05-09T21:25:04.594Z,14.24
2024-05-09T21:27:22.125Z,14.22
2024-05-09T21:29:39.390Z,14.22
2024-05-09T21:31:56.447Z,14.29
2024-05-09T21:34:13.811Z,14.15
2024-05-09T21:36:30.929Z,14.07
2024-05-09T21:38:48.019Z,14.04
2024-05-09T21:41:05.208Z,14.02
2024-05-09T21:43:22.457Z,13.96
2024-05-09T21:45:39.996Z,14.00
2024-05-09T21:47:57.223Z,13.98
2024-05-09T21:50:22.280Z,13.91
2024-05-09T21:52:44.333Z,13.85
2024-05-09T21:55:01.448Z,13.88
2024-05-09T21:57:18.548Z,13.78
2024-05-09T21:59:35.658Z,13.75
2024-05-09T22:01:52.814Z,13.71
2024-05-09T22:04:10.068Z,13.61
2024-05-09T22:06:27.172Z,13.63
2024-05-09T22:08:44.230Z,13.45
2024-05-09T22:11:01.392Z,13.56
2024-05-09T22:13:18.695Z,13.47
2024-05-09T22:15:37.581Z,13.58
2024-05-09T22:17:56.181Z,13.47
2024-05-09T22:20:21.850Z,13.52
2024-05-09T22:22:45.425Z,13.48
2024-05-09T22:25:02.727Z,13.39
2024-05-09T22:27:19.891Z,13.14
2024-05-09T22:29:36.999Z,13.21
2024-05-09T22:31:54.101Z,13.30
2024-05-09T22:34:11.356Z,13.29
2024-05-09T22:36:28.559Z,13.17
2024-05-09T22:38:45.685Z,13.15
2024-05-09T22:41:02.776Z,13.00
2024-05-09T22:43:21.009Z,13.03
2024-05-09T22:45:40.115Z,12.92
2024-05-09T22:47:57.995Z,12.94
2024-05-09T22:50:22.375Z,12.97
2024-05-09T22:52:43.541Z,12.94
2024-05-09T22:55:00.703Z,13.01
2024-05-09T22:57:17.817Z,13.04
2024-05-09T22:59:34.857Z,12.86
2024-05-09T23:01:52.473Z,12.88
2024-05-09T23:04:09.646Z,12.67
2024-05-09T23:06:26.790Z,12.96
2024-05-09T23:08:43.808Z,12.84
2024-05-09T23:11:01.107Z,12.90
2024-05-09T23:13:18.415Z,12.96
2024-05-09T23:15:35.641Z,12.80
2024-05-09T23:17:53.187Z,12.59
2024-05-09T23:20:11.729Z,12.66
2024-05-09T23:22:31.541Z,12.60
2024-05-09T23:24:48.700Z,12.56
2024-05-09T23:27:06.357Z,12.63
2024-05-09T23:29:23.453Z,12.62
2024-05-09T23:31:40.557Z,12.47
2024-05-09T23:33:57.836Z,12.50
2024-05-09T23:36:15.136Z,12.39
2024-05-09T23:38:32.262Z,12.31
2024-05-09T23:40:49.402Z,12.27
2024-05-09T23:43:06.682Z,12.31
2024-05-09T23:45:24.386Z,12.35
2024-05-09T23:47:41.726Z,12.22
2024-05-09T23:49:58.934Z,12.36
2024-05-09T23:52:16.555Z,12.24
2024-05-09T23:54:33.704Z,12.22
2024-05-09T23:56:51.336Z,12.21
2024-05-09T23:59:08.389Z,12.15
